sensor_id;sensor_type;location;lat;lon;timestamp;pressure;altitude;pressure_sealevel;temperature;humidity
39954;BME280;25631;51.516;-0.470;2024-03-25T00:00:35;100536.30;;;7.34;32.28
39954;BME280;25631;51.516;-0.470;2024-03-25T00:03:11;100536.90;;;8.18;32.24
39954;BME280;25631;51.516;-0.470;2024-03-25T00:05:48;100530.74;;;8.10;32.39
39954;BME280;25631;51.516;-0.470;2024-03-25T00:08:24;100522.91;;;7.92;32.67
39954;BME280;25631;51.516;-0.470;2024-03-25T00:11:00;100517.02;;;8.09;32.86
39954;BME280;25631;51.516;-0.470;2024-03-25T00:13:37;100514.05;;;7.79;33.17
39954;BME280;25631;51.516;-0.470;2024-03-25T00:16:13;100509.91;;;7.84;33.24
39954;BME280;25631;51.516;-0.470;2024-03-25T00:18:49;100505.02;;;7.73;33.30
39954;BME280;25631;51.516;-0.470;2024-03-25T00:21:26;100503.60;;;7.80;33.41
39954;BME280;25631;51.516;-0.470;2024-03-25T00:24:03;100505.29;;;7.73;33.47
39954;BME280;25631;51.516;-0.470;2024-03-25T00:26:39;100497.85;;;7.72;33.54
39954;BME280;25631;51.516;-0.470;2024-03-25T00:29:15;100490.59;;;7.96;33.53
39954;BME280;25631;51.516;-0.470;2024-03-25T00:31:52;100486.54;;;7.82;33.55
39954;BME280;25631;51.516;-0.470;2024-03-25T00:34:28;100486.05;;;7.70;33.52
39954;BME280;25631;51.516;-0.470;2024-03-25T00:37:05;100484.08;;;8.10;33.44
39954;BME280;25631;51.516;-0.470;2024-03-25T00:39:41;100477.73;;;8.01;33.39
39954;BME280;25631;51.516;-0.470;2024-03-25T00:42:18;100480.02;;;7.97;33.42
39954;BME280;25631;51.516;-0.470;2024-03-25T00:44:54;100481.70;;;7.83;33.52
39954;BME280;25631;51.516;-0.470;2024-03-25T00:47:30;100475.13;;;7.69;33.63
39954;BME280;25631;51.516;-0.470;2024-03-25T00:50:08;100470.80;;;7.56;33.67
39954;BME280;25631;51.516;-0.470;2024-03-25T00:52:44;100464.14;;;7.42;33.68
39954;BME280;25631;51.516;-0.470;2024-03-25T00:55:20;100457.52;;;7.60;33.69
39954;BME280;25631;51.516;-0.470;2024-03-25T00:57:57;100454.91;;;7.62;33.69
39954;BME280;25631;51.516;-0.470;2024-03-25T01:00:33;100457.15;;;7.65;33.69
39954;BME280;25631;51.516;-0.470;2024-03-25T01:03:10;100454.86;;;7.72;33.76
39954;BME280;25631;51.516;-0.470;2024-03-25T01:05:46;100450.75;;;7.42;33.75
39954;BME280;25631;51.516;-0.470;2024-03-25T01:08:22;100450.29;;;7.89;33.73
39954;BME280;25631;51.516;-0.470;2024-03-25T01:10:59;100440.38;;;7.80;33.79
39954;BME280;25631;51.516;-0.470;2024-03-25T01:13:35;100440.84;;;7.79;33.78
39954;BME280;25631;51.516;-0.470;2024-03-25T01:16:11;100440.93;;;7.94;33.74
39954;BME280;25631;51.516;-0.470;2024-03-25T01:18:48;100437.40;;;7.76;33.71
39954;BME280;25631;51.516;-0.470;2024-03-25T01:21:24;100433.92;;;7.83;33.62
39954;BME280;25631;51.516;-0.470;2024-03-25T01:24:00;100432.49;;;7.91;33.53
39954;BME280;25631;51.516;-0.470;2024-03-25T01:26:37;100435.65;;;7.99;33.50
39954;BME280;25631;51.516;-0.470;2024-03-25T01:29:13;100430.50;;;7.89;33.55
39954;BME280;25631;51.516;-0.470;2024-03-25T01:31:49;100430.69;;;7.91;33.53
39954;BME280;25631;51.516;-0.470;2024-03-25T01:34:26;100431.14;;;8.04;33.50
39954;BME280;25631;51.516;-0.470;2024-03-25T01:37:02;100430.55;;;7.91;33.49
39954;BME280;25631;51.516;-0.470;2024-03-25T01:39:39;100427.56;;;8.06;33.60
39954;BME280;25631;51.516;-0.470;2024-03-25T01:42:15;100419.10;;;7.84;33.66
39954;BME280;25631;51.516;-0.470;2024-03-25T01:44:52;100409.79;;;7.63;33.71
39954;BME280;25631;51.516;-0.470;2024-03-25T01:47:29;100403.70;;;7.47;33.83
39954;BME280;25631;51.516;-0.470;2024-03-25T01:50:07;100395.35;;;7.55;33.91
39954;BME280;25631;51.516;-0.470;2024-03-25T01:52:43;100385.11;;;7.47;33.89
39954;BME280;25631;51.516;-0.470;2024-03-25T01:55:21;100377.85;;;7.49;33.96
39954;BME280;25631;51.516;-0.470;2024-03-25T01:58:01;100370.62;;;7.39;34.10
39954;BME280;25631;51.516;-0.470;2024-03-25T02:00:38;100366.77;;;7.12;34.23
39954;BME280;25631;51.516;-0.470;2024-03-25T02:03:15;100364.35;;;7.24;34.31
39954;BME280;25631;51.516;-0.470;2024-03-25T02:05:57;100359.99;;;7.25;34.39
39954;BME280;25631;51.516;-0.470;2024-03-25T02:08:34;100354.42;;;6.92;34.40
39954;BME280;25631;51.516;-0.470;2024-03-25T02:11:11;100349.33;;;6.82;34.51
39954;BME280;25631;51.516;-0.470;2024-03-25T02:13:48;100347.99;;;6.87;34.57
39954;BME280;25631;51.516;-0.470;2024-03-25T02:16:24;100349.79;;;7.15;34.61
39954;BME280;25631;51.516;-0.470;2024-03-25T02:19:01;100346.41;;;6.66;34.61
39954;BME280;25631;51.516;-0.470;2024-03-25T02:21:38;100340.36;;;6.94;34.51
39954;BME280;25631;51.516;-0.470;2024-03-25T02:24:15;100334.55;;;6.94;34.56
39954;BME280;25631;51.516;-0.470;2024-03-25T02:26:53;100328.23;;;7.18;34.61
39954;BME280;25631;51.516;-0.470;2024-03-25T02:29:34;100318.94;;;7.17;34.58
39954;BME280;25631;51.516;-0.470;2024-03-25T02:32:11;100317.11;;;7.42;34.58
39954;BME280;25631;51.516;-0.470;2024-03-25T02:34:51;100318.35;;;7.09;34.58
39954;BME280;25631;51.516;-0.470;2024-03-25T02:37:28;100316.11;;;7.21;34.58
39954;BME280;25631;51.516;-0.470;2024-03-25T02:40:07;100312.38;;;7.53;34.60
39954;BME280;25631;51.516;-0.470;2024-03-25T02:42:44;100309.61;;;7.13;34.56
39954;BME280;25631;51.516;-0.470;2024-03-25T02:45:20;100305.73;;;7.11;34.57
39954;BME280;25631;51.516;-0.470;2024-03-25T02:47:57;100302.94;;;7.46;34.54
39954;BME280;25631;51.516;-0.470;2024-03-25T02:50:33;100299.28;;;7.42;34.46
39954;BME280;25631;51.516;-0.470;2024-03-25T02:53:09;100295.14;;;7.35;34.38
39954;BME280;25631;51.516;-0.470;2024-03-25T02:55:46;100289.28;;;7.38;34.36
39954;BME280;25631;51.516;-0.470;2024-03-25T02:58:22;100287.28;;;7.34;34.39
39954;BME280;25631;51.516;-0.470;2024-03-25T03:00:59;100279.55;;;7.22;34.39
39954;BME280;25631;51.516;-0.470;2024-03-25T03:03:35;100271.87;;;7.24;34.36
39954;BME280;25631;51.516;-0.470;2024-03-25T03:06:11;100267.70;;;7.48;34.41
39954;BME280;25631;51.516;-0.470;2024-03-25T03:08:48;100266.44;;;7.44;34.41
39954;BME280;25631;51.516;-0.470;2024-03-25T03:11:25;100263.92;;;7.60;34.37
39954;BME280;25631;51.516;-0.470;2024-03-25T03:14:01;100260.25;;;7.11;34.37
39954;BME280;25631;51.516;-0.470;2024-03-25T03:16:37;100251.85;;;7.01;34.33
39954;BME280;25631;51.516;-0.470;2024-03-25T03:19:14;100248.55;;;7.12;34.35
39954;BME280;25631;51.516;-0.470;2024-03-25T03:21:50;100244.76;;;7.30;34.35
39954;BME280;25631;51.516;-0.470;2024-03-25T03:24:27;100240.66;;;7.21;34.38
39954;BME280;25631;51.516;-0.470;2024-03-25T03:27:04;100234.73;;;7.17;34.38
39954;BME280;25631;51.516;-0.470;2024-03-25T03:29:40;100226.56;;;7.45;34.36
39954;BME280;25631;51.516;-0.470;2024-03-25T03:32:17;100223.63;;;7.19;34.39
39954;BME280;25631;51.516;-0.470;2024-03-25T03:34:53;100219.16;;;6.80;34.38
39954;BME280;25631;51.516;-0.470;2024-03-25T03:37:29;100218.04;;;7.03;34.44
39954;BME280;25631;51.516;-0.470;2024-03-25T03:40:08;100216.06;;;7.46;34.54
39954;BME280;25631;51.516;-0.470;2024-03-25T03:42:45;100215.29;;;6.66;34.58
39954;BME280;25631;51.516;-0.470;2024-03-25T03:45:24;100210.37;;;7.15;34.66
39954;BME280;25631;51.516;-0.470;2024-03-25T03:48:01;100206.00;;;7.19;34.71
39954;BME280;25631;51.516;-0.470;2024-03-25T03:50:37;100204.46;;;7.05;34.63
39954;BME280;25631;51.516;-0.470;2024-03-25T03:53:13;100203.91;;;6.93;34.62
39954;BME280;25631;51.516;-0.470;2024-03-25T03:55:54;100197.60;;;7.09;34.54
39954;BME280;25631;51.516;-0.470;2024-03-25T03:58:31;100194.66;;;7.22;34.55
39954;BME280;25631;51.516;-0.470;2024-03-25T04:01:15;100197.16;;;7.22;34.49
39954;BME280;25631;51.516;-0.470;2024-03-25T04:03:51;100189.96;;;7.04;34.47
39954;BME280;25631;51.516;-0.470;2024-03-25T04:06:27;100192.45;;;7.14;34.45
39954;BME280;25631;51.516;-0.470;2024-03-25T04:09:04;100193.89;;;6.83;34.46
39954;BME280;25631;51.516;-0.470;2024-03-25T04:11:40;100188.14;;;7.44;34.50
39954;BME280;25631;51.516;-0.470;2024-03-25T04:14:16;100182.06;;;7.14;34.50
39954;BME280;25631;51.516;-0.470;2024-03-25T04:16:53;100177.80;;;7.09;34.56
39954;BME280;25631;51.516;-0.470;2024-03-25T04:19:30;100177.20;;;6.98;34.60
39954;BME280;25631;51.516;-0.470;2024-03-25T04:22:06;100172.09;;;7.36;34.61
39954;BME280;25631;51.516;-0.470;2024-03-25T04:24:42;100171.07;;;7.21;34.67
39954;BME280;25631;51.516;-0.470;2024-03-25T04:27:19;100168.25;;;7.38;34.76
39954;BME280;25631;51.516;-0.470;2024-03-25T04:29:55;100164.81;;;6.98;34.79
39954;BME280;25631;51.516;-0.470;2024-03-25T04:32:32;100164.00;;;7.01;34.78
39954;BME280;25631;51.516;-0.470;2024-03-25T04:35:08;100160.54;;;7.24;34.83
39954;BME280;25631;51.516;-0.470;2024-03-25T04:37:44;100155.16;;;7.18;34.89
39954;BME280;25631;51.516;-0.470;2024-03-25T04:40:21;100150.48;;;7.20;34.93
39954;BME280;25631;51.516;-0.470;2024-03-25T04:42:57;100150.32;;;7.00;35.00
39954;BME280;25631;51.516;-0.470;2024-03-25T04:45:33;100144.36;;;7.24;35.07
39954;BME280;25631;51.516;-0.470;2024-03-25T04:48:10;100141.26;;;7.26;35.08
39954;BME280;25631;51.516;-0.470;2024-03-25T04:50:46;100139.37;;;7.25;35.15
39954;BME280;25631;51.516;-0.470;2024-03-25T04:53:23;100139.34;;;7.12;35.26
39954;BME280;25631;51.516;-0.470;2024-03-25T04:55:59;100139.85;;;7.20;35.40
39954;BME280;25631;51.516;-0.470;2024-03-25T04:58:35;100140.96;;;6.97;35.55
39954;BME280;25631;51.516;-0.470;2024-03-25T05:01:12;100133.51;;;7.02;35.61
39954;BME280;25631;51.516;-0.470;2024-03-25T05:03:48;100130.63;;;7.13;35.73
39954;BME280;25631;51.516;-0.470;2024-03-25T05:06:24;100129.14;;;7.07;35.97
39954;BME280;25631;51.516;-0.470;2024-03-25T05:09:01;100125.49;;;7.17;36.01
39954;BME280;25631;51.516;-0.470;2024-03-25T05:11:38;100125.14;;;6.98;36.15
39954;BME280;25631;51.516;-0.470;2024-03-25T05:14:14;100123.63;;;7.34;36.22
39954;BME280;25631;51.516;-0.470;2024-03-25T05:16:50;100120.36;;;7.17;36.35
39954;BME280;25631;51.516;-0.470;2024-03-25T05:19:27;100122.60;;;7.08;36.38
39954;BME280;25631;51.516;-0.470;2024-03-25T05:22:03;100122.84;;;6.91;36.47
39954;BME280;25631;51.516;-0.470;2024-03-25T05:24:39;100122.48;;;7.17;36.53
39954;BME280;25631;51.516;-0.470;2024-03-25T05:27:16;100116.42;;;7.40;36.61
39954;BME280;25631;51.516;-0.470;2024-03-25T05:29:52;100117.93;;;7.32;36.54
39954;BME280;25631;51.516;-0.470;2024-03-25T05:32:28;100117.31;;;7.55;36.59
39954;BME280;25631;51.516;-0.470;2024-03-25T05:35:05;100115.21;;;7.47;36.67
39954;BME280;25631;51.516;-0.470;2024-03-25T05:37:42;100108.86;;;7.37;36.94
39954;BME280;25631;51.516;-0.470;2024-03-25T05:40:18;100108.33;;;7.35;37.02
39954;BME280;25631;51.516;-0.470;2024-03-25T05:42:55;100108.84;;;7.20;37.29
39954;BME280;25631;51.516;-0.470;2024-03-25T05:45:31;100105.61;;;7.24;37.30
39954;BME280;25631;51.516;-0.470;2024-03-25T05:48:08;100101.65;;;7.31;37.45
39954;BME280;25631;51.516;-0.470;2024-03-25T05:50:44;100096.29;;;7.43;37.56
39954;BME280;25631;51.516;-0.470;2024-03-25T05:53:21;100093.34;;;7.46;37.52
39954;BME280;25631;51.516;-0.470;2024-03-25T05:55:57;100089.66;;;7.30;37.66
39954;BME280;25631;51.516;-0.470;2024-03-25T05:58:34;100085.46;;;7.35;37.68
39954;BME280;25631;51.516;-0.470;2024-03-25T06:01:10;100079.82;;;7.41;37.82
39954;BME280;25631;51.516;-0.470;2024-03-25T06:03:47;100075.66;;;7.21;37.87
39954;BME280;25631;51.516;-0.470;2024-03-25T06:06:23;100076.74;;;7.52;37.99
39954;BME280;25631;51.516;-0.470;2024-03-25T06:08:59;100074.68;;;7.47;38.14
39954;BME280;25631;51.516;-0.470;2024-03-25T06:11:36;100077.70;;;7.43;38.33
39954;BME280;25631;51.516;-0.470;2024-03-25T06:14:12;100072.01;;;7.51;38.46
39954;BME280;25631;51.516;-0.470;2024-03-25T06:16:48;100071.90;;;7.07;38.63
39954;BME280;25631;51.516;-0.470;2024-03-25T06:19:25;100070.78;;;7.30;38.68
39954;BME280;25631;51.516;-0.470;2024-03-25T06:22:01;100073.88;;;7.52;38.70
39954;BME280;25631;51.516;-0.470;2024-03-25T06:24:37;100074.51;;;7.48;38.89
39954;BME280;25631;51.516;-0.470;2024-03-25T06:27:14;100071.16;;;7.39;38.82
39954;BME280;25631;51.516;-0.470;2024-03-25T06:29:50;100070.14;;;7.65;38.87
39954;BME280;25631;51.516;-0.470;2024-03-25T06:32:27;100066.43;;;7.42;39.01
39954;BME280;25631;51.516;-0.470;2024-03-25T06:35:03;100055.97;;;7.54;39.04
39954;BME280;25631;51.516;-0.470;2024-03-25T06:37:40;100051.77;;;7.40;39.33
39954;BME280;25631;51.516;-0.470;2024-03-25T06:40:16;100049.41;;;7.31;39.44
39954;BME280;25631;51.516;-0.470;2024-03-25T06:42:52;100047.06;;;7.38;39.71
39954;BME280;25631;51.516;-0.470;2024-03-25T06:45:29;100042.29;;;7.35;39.89
39954;BME280;25631;51.516;-0.470;2024-03-25T06:48:06;100035.43;;;7.27;40.09
39954;BME280;25631;51.516;-0.470;2024-03-25T06:50:52;100032.29;;;7.10;40.14
39954;BME280;25631;51.516;-0.470;2024-03-25T06:53:28;100030.74;;;7.38;40.12
39954;BME280;25631;51.516;-0.470;2024-03-25T06:56:05;100034.76;;;7.39;40.32
39954;BME280;25631;51.516;-0.470;2024-03-25T06:58:41;100039.57;;;7.33;40.26
39954;BME280;25631;51.516;-0.470;2024-03-25T07:01:18;100041.11;;;7.34;40.34
39954;BME280;25631;51.516;-0.470;2024-03-25T07:03:54;100039.86;;;7.28;40.41
39954;BME280;25631;51.516;-0.470;2024-03-25T07:06:31;100043.67;;;7.19;40.44
39954;BME280;25631;51.516;-0.470;2024-03-25T07:09:07;100047.27;;;7.15;40.58
39954;BME280;25631;51.516;-0.470;2024-03-25T07:11:43;100053.00;;;7.28;40.73
39954;BME280;25631;51.516;-0.470;2024-03-25T07:14:20;100048.89;;;7.12;40.81
39954;BME280;25631;51.516;-0.470;2024-03-25T07:16:56;100042.70;;;7.37;40.66
39954;BME280;25631;51.516;-0.470;2024-03-25T07:19:32;100039.93;;;7.34;40.74
39954;BME280;25631;51.516;-0.470;2024-03-25T07:22:09;100035.60;;;7.29;40.93
39954;BME280;25631;51.516;-0.470;2024-03-25T07:24:45;100031.55;;;7.30;40.99
39954;BME280;25631;51.516;-0.470;2024-03-25T07:27:21;100025.67;;;7.48;41.02
39954;BME280;25631;51.516;-0.470;2024-03-25T07:29:58;100032.20;;;6.54;40.96
39954;BME280;25631;51.516;-0.470;2024-03-25T07:32:34;100033.70;;;7.50;40.89
39954;BME280;25631;51.516;-0.470;2024-03-25T07:35:11;100031.28;;;7.70;40.88
39954;BME280;25631;51.516;-0.470;2024-03-25T07:37:47;100031.93;;;7.60;40.99
39954;BME280;25631;51.516;-0.470;2024-03-25T07:40:24;100034.60;;;7.52;40.89
39954;BME280;25631;51.516;-0.470;2024-03-25T07:43:00;100032.03;;;7.44;40.90
39954;BME280;25631;51.516;-0.470;2024-03-25T07:45:36;100031.77;;;7.55;40.78
39954;BME280;25631;51.516;-0.470;2024-03-25T07:48:12;100030.83;;;7.42;40.69
39954;BME280;25631;51.516;-0.470;2024-03-25T07:50:49;100024.04;;;7.44;40.56
39954;BME280;25631;51.516;-0.470;2024-03-25T07:53:25;100020.22;;;7.67;40.36
39954;BME280;25631;51.516;-0.470;2024-03-25T07:56:02;100016.19;;;7.77;40.38
39954;BME280;25631;51.516;-0.470;2024-03-25T07:58:39;100011.66;;;7.65;40.39
39954;BME280;25631;51.516;-0.470;2024-03-25T08:01:15;100006.88;;;7.89;40.52
39954;BME280;25631;51.516;-0.470;2024-03-25T08:03:52;100005.40;;;7.80;40.29
39954;BME280;25631;51.516;-0.470;2024-03-25T08:06:29;100007.09;;;7.79;40.31
39954;BME280;25631;51.516;-0.470;2024-03-25T08:09:05;100001.12;;;7.76;40.11
39954;BME280;25631;51.516;-0.470;2024-03-25T08:11:42;99999.02;;;8.02;40.15
39954;BME280;25631;51.516;-0.470;2024-03-25T08:14:18;99992.88;;;7.56;40.15
39954;BME280;25631;51.516;-0.470;2024-03-25T08:16:55;99992.32;;;7.98;40.21
39954;BME280;25631;51.516;-0.470;2024-03-25T08:19:31;99983.81;;;7.71;40.24
39954;BME280;25631;51.516;-0.470;2024-03-25T08:22:07;99983.75;;;7.94;40.34
39954;BME280;25631;51.516;-0.470;2024-03-25T08:24:44;99978.99;;;7.85;40.40
39954;BME280;25631;51.516;-0.470;2024-03-25T08:27:20;99975.18;;;8.03;40.50
39954;BME280;25631;51.516;-0.470;2024-03-25T08:29:56;99975.14;;;8.14;40.53
39954;BME280;25631;51.516;-0.470;2024-03-25T08:32:33;99964.34;;;7.75;40.70
39954;BME280;25631;51.516;-0.470;2024-03-25T08:35:09;99960.57;;;7.78;40.72
39954;BME280;25631;51.516;-0.470;2024-03-25T08:37:45;99958.96;;;7.74;40.78
39954;BME280;25631;51.516;-0.470;2024-03-25T08:40:21;99950.57;;;7.95;40.93
39954;BME280;25631;51.516;-0.470;2024-03-25T08:42:58;99948.34;;;7.74;40.62
39954;BME280;25631;51.516;-0.470;2024-03-25T08:45:34;99951.55;;;8.00;40.68
39954;BME280;25631;51.516;-0.470;2024-03-25T08:48:10;99949.99;;;8.18;40.51
39954;BME280;25631;51.516;-0.470;2024-03-25T08:50:47;99947.68;;;8.08;40.59
39954;BME280;25631;51.516;-0.470;2024-03-25T08:53:23;99944.98;;;7.94;40.47
39954;BME280;25631;51.516;-0.470;2024-03-25T08:56:00;99941.47;;;8.27;40.17
39954;BME280;25631;51.516;-0.470;2024-03-25T08:58:36;99940.51;;;8.31;40.30
39954;BME280;25631;51.516;-0.470;2024-03-25T09:01:13;99933.99;;;8.57;40.31
39954;BME280;25631;51.516;-0.470;2024-03-25T09:03:49;99935.20;;;8.28;39.47
39954;BME280;25631;51.516;-0.470;2024-03-25T09:06:25;99936.48;;;8.25;38.17
39954;BME280;25631;51.516;-0.470;2024-03-25T09:09:02;99931.12;;;8.13;38.44
39954;BME280;25631;51.516;-0.470;2024-03-25T09:11:38;99939.71;;;8.07;38.10
39954;BME280;25631;51.516;-0.470;2024-03-25T09:14:14;99930.74;;;8.03;38.27
39954;BME280;25631;51.516;-0.470;2024-03-25T09:16:51;99931.23;;;8.14;37.94
39954;BME280;25631;51.516;-0.470;2024-03-25T09:19:27;99931.22;;;7.99;37.51
39954;BME280;25631;51.516;-0.470;2024-03-25T09:22:04;99928.04;;;7.96;36.96
39954;BME280;25631;51.516;-0.470;2024-03-25T09:24:40;99925.60;;;8.09;36.88
39954;BME280;25631;51.516;-0.470;2024-03-25T09:27:16;99917.63;;;8.23;36.95
39954;BME280;25631;51.516;-0.470;2024-03-25T09:29:52;99919.19;;;8.39;36.69
39954;BME280;25631;51.516;-0.470;2024-03-25T09:32:29;99917.85;;;8.42;36.83
39954;BME280;25631;51.516;-0.470;2024-03-25T09:35:06;99914.64;;;8.41;36.95
39954;BME280;25631;51.516;-0.470;2024-03-25T09:37:43;99916.46;;;8.25;37.09
39954;BME280;25631;51.516;-0.470;2024-03-25T09:40:19;99914.92;;;8.39;37.08
39954;BME280;25631;51.516;-0.470;2024-03-25T09:42:56;99917.80;;;8.48;37.19
39954;BME280;25631;51.516;-0.470;2024-03-25T09:45:33;99917.84;;;8.25;36.93
39954;BME280;25631;51.516;-0.470;2024-03-25T09:48:12;99911.62;;;8.73;36.89
39954;BME280;25631;51.516;-0.470;2024-03-25T09:50:49;99908.51;;;8.66;37.11
39954;BME280;25631;51.516;-0.470;2024-03-25T09:53:26;99902.66;;;8.59;36.73
39954;BME280;25631;51.516;-0.470;2024-03-25T09:56:03;99900.20;;;8.14;36.82
39954;BME280;25631;51.516;-0.470;2024-03-25T09:58:41;99897.95;;;8.39;36.20
39954;BME280;25631;51.516;-0.470;2024-03-25T10:01:18;99893.32;;;8.46;35.48
39954;BME280;25631;51.516;-0.470;2024-03-25T10:03:55;99893.20;;;8.63;34.99
39954;BME280;25631;51.516;-0.470;2024-03-25T10:06:31;99897.94;;;8.55;35.34
39954;BME280;25631;51.516;-0.470;2024-03-25T10:09:08;99898.51;;;8.26;35.12
39954;BME280;25631;51.516;-0.470;2024-03-25T10:11:47;99894.27;;;8.12;34.96
39954;BME280;25631;51.516;-0.470;2024-03-25T10:14:23;99891.35;;;8.25;34.80
39954;BME280;25631;51.516;-0.470;2024-03-25T10:17:02;99891.77;;;8.32;34.59
39954;BME280;25631;51.516;-0.470;2024-03-25T10:19:38;99891.14;;;7.79;34.54
39954;BME280;25631;51.516;-0.470;2024-03-25T10:22:15;99890.55;;;8.27;34.48
39954;BME280;25631;51.516;-0.470;2024-03-25T10:24:51;99890.12;;;8.65;34.77
39954;BME280;25631;51.516;-0.470;2024-03-25T10:27:27;99887.88;;;8.34;34.87
39954;BME280;25631;51.516;-0.470;2024-03-25T10:30:04;99886.08;;;8.50;34.72
39954;BME280;25631;51.516;-0.470;2024-03-25T10:32:41;99885.63;;;8.54;34.74
39954;BME280;25631;51.516;-0.470;2024-03-25T10:35:17;99882.68;;;8.35;34.42
39954;BME280;25631;51.516;-0.470;2024-03-25T10:37:57;99887.04;;;8.31;34.48
39954;BME280;25631;51.516;-0.470;2024-03-25T10:40:35;99885.76;;;8.72;33.94
39954;BME280;25631;51.516;-0.470;2024-03-25T10:43:12;99884.10;;;8.59;33.84
39954;BME280;25631;51.516;-0.470;2024-03-25T10:45:49;99883.04;;;8.56;33.87
39954;BME280;25631;51.516;-0.470;2024-03-25T10:48:29;99877.51;;;8.67;33.91
39954;BME280;25631;51.516;-0.470;2024-03-25T10:51:07;99874.98;;;8.75;34.01
39954;BME280;25631;51.516;-0.470;2024-03-25T10:53:46;99867.93;;;8.58;33.95
39954;BME280;25631;51.516;-0.470;2024-03-25T10:56:27;99857.59;;;8.58;33.98
39954;BME280;25631;51.516;-0.470;2024-03-25T10:59:04;99853.79;;;8.58;33.92
39954;BME280;25631;51.516;-0.470;2024-03-25T11:01:42;99847.60;;;9.02;34.00
39954;BME280;25631;51.516;-0.470;2024-03-25T11:04:18;99842.69;;;8.69;34.07
39954;BME280;25631;51.516;-0.470;2024-03-25T11:07:06;99838.52;;;8.99;34.21
39954;BME280;25631;51.516;-0.470;2024-03-25T11:09:43;99831.87;;;9.43;34.02
39954;BME280;25631;51.516;-0.470;2024-03-25T11:12:20;99825.90;;;9.42;33.60
39954;BME280;25631;51.516;-0.470;2024-03-25T11:14:57;99819.25;;;9.27;33.49
39954;BME280;25631;51.516;-0.470;2024-03-25T11:17:33;99817.79;;;9.34;33.29
39954;BME280;25631;51.516;-0.470;2024-03-25T11:20:11;99813.51;;;9.71;33.06
39954;BME280;25631;51.516;-0.470;2024-03-25T11:22:49;99811.32;;;9.50;33.18
39954;BME280;25631;51.516;-0.470;2024-03-25T11:25:25;99807.97;;;9.81;33.11
39954;BME280;25631;51.516;-0.470;2024-03-25T11:28:07;99807.91;;;9.68;32.88
39954;BME280;25631;51.516;-0.470;2024-03-25T11:30:44;99807.25;;;9.74;32.44
39954;BME280;25631;51.516;-0.470;2024-03-25T11:33:21;99801.68;;;9.66;32.18
39954;BME280;25631;51.516;-0.470;2024-03-25T11:35:57;99794.13;;;9.80;32.13
39954;BME280;25631;51.516;-0.470;2024-03-25T11:38:34;99785.24;;;9.79;32.13
39954;BME280;25631;51.516;-0.470;2024-03-25T11:41:10;99776.94;;;9.92;32.11
39954;BME280;25631;51.516;-0.470;2024-03-25T11:43:47;99776.35;;;10.21;31.92
39954;BME280;25631;51.516;-0.470;2024-03-25T11:46:25;99771.04;;;9.99;31.93
39954;BME280;25631;51.516;-0.470;2024-03-25T11:49:01;99759.77;;;9.99;32.01
39954;BME280;25631;51.516;-0.470;2024-03-25T11:51:38;99754.73;;;10.35;31.89
39954;BME280;25631;51.516;-0.470;2024-03-25T11:54:14;99747.82;;;10.54;31.90
39954;BME280;25631;51.516;-0.470;2024-03-25T11:56:52;99744.76;;;10.71;31.90
39954;BME280;25631;51.516;-0.470;2024-03-25T11:59:29;99736.49;;;10.82;31.80
39954;BME280;25631;51.516;-0.470;2024-03-25T12:02:06;99731.97;;;10.57;31.38
39954;BME280;25631;51.516;-0.470;2024-03-25T12:04:43;99738.53;;;10.40;31.39
39954;BME280;25631;51.516;-0.470;2024-03-25T12:07:19;99723.57;;;10.39;31.34
39954;BME280;25631;51.516;-0.470;2024-03-25T12:09:56;99718.93;;;10.10;31.54
39954;BME280;25631;51.516;-0.470;2024-03-25T12:12:32;99709.85;;;10.30;31.63
39954;BME280;25631;51.516;-0.470;2024-03-25T12:15:09;99705.59;;;10.36;31.71
39954;BME280;25631;51.516;-0.470;2024-03-25T12:17:46;99698.54;;;10.66;31.58
39954;BME280;25631;51.516;-0.470;2024-03-25T12:20:23;99697.25;;;10.24;31.56
39954;BME280;25631;51.516;-0.470;2024-03-25T12:23:01;99694.07;;;10.43;31.23
39954;BME280;25631;51.516;-0.470;2024-03-25T12:25:38;99688.60;;;10.73;31.40
39954;BME280;25631;51.516;-0.470;2024-03-25T12:28:14;99681.45;;;10.84;31.02
39954;BME280;25631;51.516;-0.470;2024-03-25T12:30:52;99675.66;;;10.90;30.76
39954;BME280;25631;51.516;-0.470;2024-03-25T12:33:28;99672.06;;;11.13;30.72
39954;BME280;25631;51.516;-0.470;2024-03-25T12:36:05;99669.21;;;11.19;30.25
39954;BME280;25631;51.516;-0.470;2024-03-25T12:38:42;99665.45;;;10.97;30.18
39954;BME280;25631;51.516;-0.470;2024-03-25T12:41:22;99662.34;;;10.88;30.25
39954;BME280;25631;51.516;-0.470;2024-03-25T12:43:59;99656.81;;;11.02;30.07
39954;BME280;25631;51.516;-0.470;2024-03-25T12:46:36;99652.39;;;11.00;30.11
39954;BME280;25631;51.516;-0.470;2024-03-25T12:49:13;99648.79;;;10.76;29.90
39954;BME280;25631;51.516;-0.470;2024-03-25T12:51:49;99639.00;;;11.07;29.64
39954;BME280;25631;51.516;-0.470;2024-03-25T12:54:25;99637.25;;;11.17;29.98
39954;BME280;25631;51.516;-0.470;2024-03-25T12:57:02;99630.52;;;10.86;30.06
39954;BME280;25631;51.516;-0.470;2024-03-25T12:59:38;99622.77;;;11.01;30.07
39954;BME280;25631;51.516;-0.470;2024-03-25T13:02:15;99620.49;;;11.30;30.08
39954;BME280;25631;51.516;-0.470;2024-03-25T13:04:51;99618.26;;;11.20;30.12
39954;BME280;25631;51.516;-0.470;2024-03-25T13:07:27;99617.12;;;11.23;29.92
39954;BME280;25631;51.516;-0.470;2024-03-25T13:10:04;99610.78;;;11.13;29.29
39954;BME280;25631;51.516;-0.470;2024-03-25T13:12:40;99604.30;;;10.93;29.45
39954;BME280;25631;51.516;-0.470;2024-03-25T13:15:17;99605.16;;;10.97;29.52
39954;BME280;25631;51.516;-0.470;2024-03-25T13:17:54;99605.07;;;10.59;28.81
39954;BME280;25631;51.516;-0.470;2024-03-25T13:20:30;99602.48;;;11.28;28.59
39954;BME280;25631;51.516;-0.470;2024-03-25T13:23:06;99604.60;;;11.05;28.57
39954;BME280;25631;51.516;-0.470;2024-03-25T13:25:43;99597.73;;;10.79;28.53
39954;BME280;25631;51.516;-0.470;2024-03-25T13:28:19;99593.03;;;11.20;28.61
39954;BME280;25631;51.516;-0.470;2024-03-25T13:30:56;99591.47;;;11.18;28.86
39954;BME280;25631;51.516;-0.470;2024-03-25T13:33:32;99592.62;;;10.94;28.36
39954;BME280;25631;51.516;-0.470;2024-03-25T13:36:09;99587.49;;;11.14;28.27
39954;BME280;25631;51.516;-0.470;2024-03-25T13:38:45;99583.90;;;11.16;28.26
39954;BME280;25631;51.516;-0.470;2024-03-25T13:41:21;99583.66;;;11.15;28.35